sensor_id;sensor_type;location;lat;lon;timestamp;pressure;altitude;pressure_sealevel;temperature;humidity
45991;BME280;31721;41.740;-88.000;2022-07-29T00:00:51;98698.08;;;25.79;34.11
45991;BME280;31721;41.740;-88.000;2022-07-29T00:03:19;98703.63;;;25.77;34.23
45991;BME280;31721;41.740;-88.000;2022-07-29T00:05:46;98706.81;;;25.71;34.13
45991;BME280;31721;41.740;-88.000;2022-07-29T00:08:14;98712.63;;;25.77;34.16
45991;BME280;31721;41.740;-88.000;2022-07-29T00:10:41;98716.15;;;25.79;34.05
45991;BME280;31721;41.740;-88.000;2022-07-29T00:13:09;98714.79;;;25.76;34.16
45991;BME280;31721;41.740;-88.000;2022-07-29T00:15:36;98710.48;;;25.64;34.38
45991;BME280;31721;41.740;-88.000;2022-07-29T00:18:04;98708.07;;;25.39;34.77
45991;BME280;31721;41.740;-88.000;2022-07-29T00:20:32;98703.77;;;25.50;34.53
45991;BME280;31721;41.740;-88.000;2022-07-29T00:23:00;98706.76;;;25.41;34.77
45991;BME280;31721;41.740;-88.000;2022-07-29T00:25:27;98706.76;;;25.39;35.15
45991;BME280;31721;41.740;-88.000;2022-07-29T00:27:55;98709.75;;;25.36;34.90
45991;BME280;31721;41.740;-88.000;2022-07-29T00:30:23;98708.80;;;25.22;35.07
45991;BME280;31721;41.740;-88.000;2022-07-29T00:32:50;98711.36;;;25.05;34.84
45991;BME280;31721;41.740;-88.000;2022-07-29T00:35:18;98714.28;;;25.02;34.86
45991;BME280;31721;41.740;-88.000;2022-07-29T00:37:45;98720.55;;;25.01;35.06
45991;BME280;31721;41.740;-88.000;2022-07-29T00:40:13;98724.55;;;24.96;35.26
45991;BME280;31721;41.740;-88.000;2022-07-29T00:42:42;98727.55;;;24.80;35.31
45991;BME280;31721;41.740;-88.000;2022-07-29T00:45:12;98726.21;;;24.90;35.68
45991;BME280;31721;41.740;-88.000;2022-07-29T00:47:40;98731.76;;;24.90;35.84
45991;BME280;31721;41.740;-88.000;2022-07-29T00:50:09;98730.71;;;24.78;35.88
45991;BME280;31721;41.740;-88.000;2022-07-29T00:52:38;98728.87;;;24.70;36.07
45991;BME280;31721;41.740;-88.000;2022-07-29T00:55:09;98734.91;;;24.72;35.66
45991;BME280;31721;41.740;-88.000;2022-07-29T00:57:38;98736.42;;;24.67;35.76
45991;BME280;31721;41.740;-88.000;2022-07-29T01:00:09;98740.54;;;24.52;35.77
45991;BME280;31721;41.740;-88.000;2022-07-29T01:02:37;98745.17;;;24.63;35.70
45991;BME280;31721;41.740;-88.000;2022-07-29T01:05:06;98744.81;;;24.71;35.97
45991;BME280;31721;41.740;-88.000;2022-07-29T01:07:35;98745.13;;;24.58;36.25
45991;BME280;31721;41.740;-88.000;2022-07-29T01:10:04;98750.15;;;24.44;36.11
45991;BME280;31721;41.740;-88.000;2022-07-29T01:12:33;98750.33;;;24.31;36.46
45991;BME280;31721;41.740;-88.000;2022-07-29T01:15:05;98746.32;;;24.26;36.27
45991;BME280;31721;41.740;-88.000;2022-07-29T01:17:36;98749.72;;;24.25;36.37
45991;BME280;31721;41.740;-88.000;2022-07-29T01:20:10;98750.14;;;24.09;36.38
45991;BME280;31721;41.740;-88.000;2022-07-29T01:23:05;98751.47;;;24.07;36.72
45991;BME280;31721;41.740;-88.000;2022-07-29T01:25:46;98751.62;;;24.08;36.72
45991;BME280;31721;41.740;-88.000;2022-07-29T01:28:47;98755.08;;;23.96;36.86
45991;BME280;31721;41.740;-88.000;2022-07-29T01:31:20;98758.97;;;23.88;36.92
45991;BME280;31721;41.740;-88.000;2022-07-29T01:33:53;98765.69;;;23.81;36.98
45991;BME280;31721;41.740;-88.000;2022-07-29T01:36:30;98766.50;;;23.83;37.20
45991;BME280;31721;41.740;-88.000;2022-07-29T01:39:04;98770.37;;;23.80;37.20
45991;BME280;31721;41.740;-88.000;2022-07-29T01:41:34;98770.96;;;23.71;37.43
45991;BME280;31721;41.740;-88.000;2022-07-29T01:44:11;98768.98;;;23.64;37.30
45991;BME280;31721;41.740;-88.000;2022-07-29T01:46:49;98772.66;;;23.63;37.34
45991;BME280;31721;41.740;-88.000;2022-07-29T01:49:24;98774.05;;;23.63;37.45
45991;BME280;31721;41.740;-88.000;2022-07-29T01:51:57;98776.78;;;23.60;37.55
45991;BME280;31721;41.740;-88.000;2022-07-29T01:54:30;98775.96;;;23.38;37.70
45991;BME280;31721;41.740;-88.000;2022-07-29T01:57:00;98780.09;;;23.36;37.65
45991;BME280;31721;41.740;-88.000;2022-07-29T01:59:29;98786.57;;;23.31;37.74
45991;BME280;31721;41.740;-88.000;2022-07-29T02:01:58;98788.05;;;23.34;37.97
45991;BME280;31721;41.740;-88.000;2022-07-29T02:04:28;98794.10;;;23.28;37.79
45991;BME280;31721;41.740;-88.000;2022-07-29T02:07:01;98800.06;;;23.16;38.02
45991;BME280;31721;41.740;-88.000;2022-07-29T02:09:30;98803.21;;;23.16;37.99
45991;BME280;31721;41.740;-88.000;2022-07-29T02:12:00;98806.79;;;23.12;38.27
45991;BME280;31721;41.740;-88.000;2022-07-29T02:14:32;98808.05;;;23.13;38.34
45991;BME280;31721;41.740;-88.000;2022-07-29T02:17:02;98810.82;;;23.01;38.34
45991;BME280;31721;41.740;-88.000;2022-07-29T02:19:32;98816.99;;;23.00;38.60
45991;BME280;31721;41.740;-88.000;2022-07-29T02:22:01;98817.05;;;23.05;38.66
45991;BME280;31721;41.740;-88.000;2022-07-29T02:24:30;98818.16;;;23.02;38.67
45991;BME280;31721;41.740;-88.000;2022-07-29T02:26:59;98818.91;;;22.90;38.81
45991;BME280;31721;41.740;-88.000;2022-07-29T02:29:30;98823.88;;;22.85;38.90
45991;BME280;31721;41.740;-88.000;2022-07-29T02:31:59;98828.01;;;22.81;38.96
45991;BME280;31721;41.740;-88.000;2022-07-29T02:34:29;98835.24;;;22.78;38.86
45991;BME280;31721;41.740;-88.000;2022-07-29T02:36:57;98839.80;;;22.84;39.00
45991;BME280;31721;41.740;-88.000;2022-07-29T02:39:27;98842.89;;;22.77;38.87
45991;BME280;31721;41.740;-88.000;2022-07-29T02:42:00;98844.21;;;22.62;39.03
45991;BME280;31721;41.740;-88.000;2022-07-29T02:44:29;98844.44;;;22.57;39.21
45991;BME280;31721;41.740;-88.000;2022-07-29T02:47:02;98845.62;;;22.48;39.28
45991;BME280;31721;41.740;-88.000;2022-07-29T02:49:37;98849.90;;;22.45;39.53
45991;BME280;31721;41.740;-88.000;2022-07-29T02:52:10;98848.94;;;22.45;39.55
45991;BME280;31721;41.740;-88.000;2022-07-29T02:54:44;98848.15;;;22.24;39.77
45991;BME280;31721;41.740;-88.000;2022-07-29T02:57:20;98850.07;;;22.20;40.07
45991;BME280;31721;41.740;-88.000;2022-07-29T02:59:51;98854.79;;;22.24;40.19
45991;BME280;31721;41.740;-88.000;2022-07-29T03:02:20;98857.12;;;22.16;40.20
45991;BME280;31721;41.740;-88.000;2022-07-29T03:04:55;98857.38;;;22.09;40.32
45991;BME280;31721;41.740;-88.000;2022-07-29T03:07:25;98857.46;;;22.00;40.55
45991;BME280;31721;41.740;-88.000;2022-07-29T03:09:53;98856.38;;;21.99;40.58
45991;BME280;31721;41.740;-88.000;2022-07-29T03:12:22;98854.37;;;21.94;40.94
45991;BME280;31721;41.740;-88.000;2022-07-29T03:14:50;98848.58;;;21.80;41.06
45991;BME280;31721;41.740;-88.000;2022-07-29T03:17:19;98847.64;;;21.82;41.32
45991;BME280;31721;41.740;-88.000;2022-07-29T03:19:48;98848.45;;;21.78;41.30
45991;BME280;31721;41.740;-88.000;2022-07-29T03:22:16;98851.76;;;21.71;41.15
45991;BME280;31721;41.740;-88.000;2022-07-29T03:24:44;98851.88;;;21.66;41.76
45991;BME280;31721;41.740;-88.000;2022-07-29T03:27:11;98850.91;;;21.63;41.70
45991;BME280;31721;41.740;-88.000;2022-07-29T03:29:39;98855.54;;;21.59;41.81
45991;BME280;31721;41.740;-88.000;2022-07-29T03:32:07;98857.34;;;21.53;41.76
45991;BME280;31721;41.740;-88.000;2022-07-29T03:34:35;98857.69;;;21.45;42.07
45991;BME280;31721;41.740;-88.000;2022-07-29T03:37:04;98854.79;;;21.42;42.22
45991;BME280;31721;41.740;-88.000;2022-07-29T03:39:37;98853.89;;;21.38;42.32
45991;BME280;31721;41.740;-88.000;2022-07-29T03:42:07;98858.70;;;21.41;42.34
45991;BME280;31721;41.740;-88.000;2022-07-29T03:44:39;98858.93;;;21.36;42.24
45991;BME280;31721;41.740;-88.000;2022-07-29T03:47:09;98860.43;;;21.23;42.52
45991;BME280;31721;41.740;-88.000;2022-07-29T03:49:40;98865.41;;;21.25;42.78
45991;BME280;31721;41.740;-88.000;2022-07-29T03:52:09;98865.68;;;21.20;42.76
45991;BME280;31721;41.740;-88.000;2022-07-29T03:54:37;98866.25;;;21.27;43.02
45991;BME280;31721;41.740;-88.000;2022-07-29T03:57:06;98870.27;;;21.22;43.06
45991;BME280;31721;41.740;-88.000;2022-07-29T03:59:34;98873.09;;;21.01;43.23
45991;BME280;31721;41.740;-88.000;2022-07-29T04:02:04;98872.69;;;21.02;43.40
45991;BME280;31721;41.740;-88.000;2022-07-29T04:04:33;98873.45;;;20.96;43.42
45991;BME280;31721;41.740;-88.000;2022-07-29T04:07:01;98873.70;;;21.02;43.71
45991;BME280;31721;41.740;-88.000;2022-07-29T04:09:29;98874.27;;;20.96;43.81
45991;BME280;31721;41.740;-88.000;2022-07-29T04:11:57;98873.55;;;20.96;44.28
45991;BME280;31721;41.740;-88.000;2022-07-29T04:14:25;98875.50;;;20.86;44.29
45991;BME280;31721;41.740;-88.000;2022-07-29T04:16:52;98877.30;;;20.96;44.36
45991;BME280;31721;41.740;-88.000;2022-07-29T04:19:20;98876.18;;;20.95;44.39
45991;BME280;31721;41.740;-88.000;2022-07-29T04:21:48;98882.46;;;20.95;44.46
45991;BME280;31721;41.740;-88.000;2022-07-29T04:24:15;98886.32;;;20.96;44.48
45991;BME280;31721;41.740;-88.000;2022-07-29T04:26:44;98888.52;;;20.97;44.54
45991;BME280;31721;41.740;-88.000;2022-07-29T04:29:12;98889.08;;;20.81;44.58
45991;BME280;31721;41.740;-88.000;2022-07-29T04:31:40;98890.16;;;20.89;44.56
45991;BME280;31721;41.740;-88.000;2022-07-29T04:34:08;98889.98;;;20.87;44.59
45991;BME280;31721;41.740;-88.000;2022-07-29T04:36:36;98889.04;;;20.87;44.54
45991;BME280;31721;41.740;-88.000;2022-07-29T04:39:04;98891.61;;;20.84;44.64
45991;BME280;31721;41.740;-88.000;2022-07-29T04:41:32;98893.31;;;20.83;44.77
45991;BME280;31721;41.740;-88.000;2022-07-29T04:44:00;98898.51;;;20.78;44.87
45991;BME280;31721;41.740;-88.000;2022-07-29T04:46:27;98897.38;;;20.73;44.87
45991;BME280;31721;41.740;-88.000;2022-07-29T04:48:55;98900.06;;;20.68;44.92
45991;BME280;31721;41.740;-88.000;2022-07-29T04:51:23;98898.84;;;20.52;45.04
45991;BME280;31721;41.740;-88.000;2022-07-29T04:53:51;98901.29;;;20.47;45.01
45991;BME280;31721;41.740;-88.000;2022-07-29T04:56:19;98902.18;;;20.58;45.18
45991;BME280;31721;41.740;-88.000;2022-07-29T04:58:46;98896.03;;;20.47;45.30
45991;BME280;31721;41.740;-88.000;2022-07-29T05:01:14;98893.76;;;20.45;45.63
45991;BME280;31721;41.740;-88.000;2022-07-29T05:03:42;98893.43;;;20.49;45.68
45991;BME280;31721;41.740;-88.000;2022-07-29T05:06:09;98892.43;;;20.40;45.64
45991;BME280;31721;41.740;-88.000;2022-07-29T05:08:37;98893.23;;;20.43;45.64
45991;BME280;31721;41.740;-88.000;2022-07-29T05:11:05;98895.58;;;20.37;45.71
45991;BME280;31721;41.740;-88.000;2022-07-29T05:13:33;98895.19;;;20.29;45.92
45991;BME280;31721;41.740;-88.000;2022-07-29T05:16:01;98895.97;;;20.16;46.12
45991;BME280;31721;41.740;-88.000;2022-07-29T05:18:29;98896.29;;;20.20;46.19
45991;BME280;31721;41.740;-88.000;2022-07-29T05:20:57;98895.13;;;20.18;46.15
45991;BME280;31721;41.740;-88.000;2022-07-29T05:23:24;98893.88;;;20.04;46.57
45991;BME280;31721;41.740;-88.000;2022-07-29T05:25:52;98891.18;;;20.03;46.84
45991;BME280;31721;41.740;-88.000;2022-07-29T05:28:20;98890.40;;;19.95;46.92
45991;BME280;31721;41.740;-88.000;2022-07-29T05:30:47;98890.00;;;20.09;46.94
45991;BME280;31721;41.740;-88.000;2022-07-29T05:33:15;98891.29;;;20.10;47.00
45991;BME280;31721;41.740;-88.000;2022-07-29T05:35:43;98892.54;;;20.19;46.92
45991;BME280;31721;41.740;-88.000;2022-07-29T05:38:11;98897.95;;;19.97;46.94
45991;BME280;31721;41.740;-88.000;2022-07-29T05:40:38;98894.98;;;20.03;46.96
45991;BME280;31721;41.740;-88.000;2022-07-29T05:43:05;98894.29;;;20.04;47.00
45991;BME280;31721;41.740;-88.000;2022-07-29T05:45:32;98899.73;;;20.08;47.05
45991;BME280;31721;41.740;-88.000;2022-07-29T05:48:00;98900.70;;;19.99;47.01
45991;BME280;31721;41.740;-88.000;2022-07-29T05:50:28;98903.54;;;19.95;46.96
45991;BME280;31721;41.740;-88.000;2022-07-29T05:52:55;98902.77;;;19.89;46.93
45991;BME280;31721;41.740;-88.000;2022-07-29T05:55:23;98900.11;;;19.95;46.94
45991;BME280;31721;41.740;-88.000;2022-07-29T05:57:52;98898.45;;;19.98;47.03
45991;BME280;31721;41.740;-88.000;2022-07-29T06:00:20;98894.55;;;19.90;46.86
45991;BME280;31721;41.740;-88.000;2022-07-29T06:02:48;98892.78;;;19.90;46.97
45991;BME280;31721;41.740;-88.000;2022-07-29T06:05:16;98891.33;;;19.86;46.99
45991;BME280;31721;41.740;-88.000;2022-07-29T06:07:43;98887.21;;;19.82;47.12
45991;BME280;31721;41.740;-88.000;2022-07-29T06:10:11;98885.45;;;19.84;47.14
45991;BME280;31721;41.740;-88.000;2022-07-29T06:12:39;98884.54;;;19.80;47.04
45991;BME280;31721;41.740;-88.000;2022-07-29T06:15:07;98880.53;;;19.80;47.11
45991;BME280;31721;41.740;-88.000;2022-07-29T06:17:35;98877.19;;;19.78;47.26
45991;BME280;31721;41.740;-88.000;2022-07-29T06:20:04;98874.34;;;19.72;47.28
45991;BME280;31721;41.740;-88.000;2022-07-29T06:22:32;98871.37;;;19.71;47.52
45991;BME280;31721;41.740;-88.000;2022-07-29T06:25:00;98873.47;;;19.88;47.44
45991;BME280;31721;41.740;-88.000;2022-07-29T06:27:28;98875.05;;;19.78;47.51
45991;BME280;31721;41.740;-88.000;2022-07-29T06:29:56;98878.19;;;19.87;47.32
45991;BME280;31721;41.740;-88.000;2022-07-29T06:32:24;98877.26;;;19.77;47.23
45991;BME280;31721;41.740;-88.000;2022-07-29T06:34:52;98878.15;;;19.80;47.24
45991;BME280;31721;41.740;-88.000;2022-07-29T06:37:24;98880.36;;;19.84;47.32
45991;BME280;31721;41.740;-88.000;2022-07-29T06:39:51;98882.98;;;19.66;47.25
45991;BME280;31721;41.740;-88.000;2022-07-29T06:42:19;98884.14;;;19.65;47.51
45991;BME280;31721;41.740;-88.000;2022-07-29T06:44:47;98883.08;;;19.57;47.58
45991;BME280;31721;41.740;-88.000;2022-07-29T06:47:14;98881.72;;;19.48;47.64
45991;BME280;31721;41.740;-88.000;2022-07-29T06:49:42;98883.92;;;19.56;47.85
45991;BME280;31721;41.740;-88.000;2022-07-29T06:52:09;98885.91;;;19.39;47.92
45991;BME280;31721;41.740;-88.000;2022-07-29T06:54:37;98888.41;;;19.37;47.79
45991;BME280;31721;41.740;-88.000;2022-07-29T06:57:05;98889.74;;;19.29;48.05
45991;BME280;31721;41.740;-88.000;2022-07-29T06:59:32;98887.57;;;19.31;48.04
45991;BME280;31721;41.740;-88.000;2022-07-29T07:01:59;98892.09;;;19.18;48.03
45991;BME280;31721;41.740;-88.000;2022-07-29T07:04:27;98894.29;;;19.31;48.34
45991;BME280;31721;41.740;-88.000;2022-07-29T07:06:55;98895.15;;;19.18;48.31
45991;BME280;31721;41.740;-88.000;2022-07-29T07:09:22;98898.55;;;19.17;48.39
45991;BME280;31721;41.740;-88.000;2022-07-29T07:11:50;98902.83;;;19.15;48.71
45991;BME280;31721;41.740;-88.000;2022-07-29T07:14:18;98904.84;;;19.06;48.64
45991;BME280;31721;41.740;-88.000;2022-07-29T07:16:45;98907.47;;;19.15;48.61
45991;BME280;31721;41.740;-88.000;2022-07-29T07:19:12;98906.28;;;18.96;48.71
45991;BME280;31721;41.740;-88.000;2022-07-29T07:21:40;98904.46;;;19.00;48.89
45991;BME280;31721;41.740;-88.000;2022-07-29T07:24:07;98901.18;;;18.93;49.09
45991;BME280;31721;41.740;-88.000;2022-07-29T07:26:35;98899.37;;;18.97;49.20
45991;BME280;31721;41.740;-88.000;2022-07-29T07:29:02;98900.89;;;18.84;49.34
45991;BME280;31721;41.740;-88.000;2022-07-29T07:31:36;98900.57;;;18.76;49.56
45991;BME280;31721;41.740;-88.000;2022-07-29T07:34:05;98901.37;;;18.78;49.55
45991;BME280;31721;41.740;-88.000;2022-07-29T07:36:32;98902.72;;;18.72;49.70
45991;BME280;31721;41.740;-88.000;2022-07-29T07:39:00;98904.86;;;18.70;49.97
45991;BME280;31721;41.740;-88.000;2022-07-29T07:41:28;98904.33;;;18.65;49.85
45991;BME280;31721;41.740;-88.000;2022-07-29T07:43:56;98907.50;;;18.57;50.18
45991;BME280;31721;41.740;-88.000;2022-07-29T07:46:23;98906.49;;;18.58;50.17
45991;BME280;31721;41.740;-88.000;2022-07-29T07:48:50;98909.47;;;18.54;50.31
45991;BME280;31721;41.740;-88.000;2022-07-29T07:51:18;98911.05;;;18.51;50.27
45991;BME280;31721;41.740;-88.000;2022-07-29T07:53:45;98913.34;;;18.47;50.37
45991;BME280;31721;41.740;-88.000;2022-07-29T07:56:13;98915.03;;;18.45;50.71
45991;BME280;31721;41.740;-88.000;2022-07-29T07:58:41;98916.69;;;18.42;50.75
45991;BME280;31721;41.740;-88.000;2022-07-29T08:01:09;98920.63;;;18.41;50.87
45991;BME280;31721;41.740;-88.000;2022-07-29T08:03:37;98927.83;;;18.27;50.81
45991;BME280;31721;41.740;-88.000;2022-07-29T08:06:05;98927.41;;;18.28;50.81
45991;BME280;31721;41.740;-88.000;2022-07-29T08:08:33;98927.00;;;18.24;50.98
45991;BME280;31721;41.740;-88.000;2022-07-29T08:11:01;98924.45;;;18.29;51.34
45991;BME280;31721;41.740;-88.000;2022-07-29T08:13:29;98922.95;;;18.26;51.31
45991;BME280;31721;41.740;-88.000;2022-07-29T08:15:57;98923.61;;;18.16;51.38
45991;BME280;31721;41.740;-88.000;2022-07-29T08:18:25;98922.27;;;18.23;51.43
45991;BME280;31721;41.740;-88.000;2022-07-29T08:20:54;98921.08;;;18.22;51.44
45991;BME280;31721;41.740;-88.000;2022-07-29T08:23:21;98919.38;;;18.21;51.49
45991;BME280;31721;41.740;-88.000;2022-07-29T08:25:49;98922.22;;;18.07;51.50
45991;BME280;31721;41.740;-88.000;2022-07-29T08:28:17;98922.25;;;18.08;51.49
45991;BME280;31721;41.740;-88.000;2022-07-29T08:30:45;98923.67;;;18.13;51.47
45991;BME280;31721;41.740;-88.000;2022-07-29T08:33:12;98924.34;;;18.01;51.54
45991;BME280;31721;41.740;-88.000;2022-07-29T08:35:41;98920.17;;;18.10;51.35
45991;BME280;31721;41.740;-88.000;2022-07-29T08:38:08;98920.98;;;17.97;51.51
45991;BME280;31721;41.740;-88.000;2022-07-29T08:40:36;98922.98;;;17.87;51.66
45991;BME280;31721;41.740;-88.000;2022-07-29T08:43:05;98924.13;;;18.02;51.74
45991;BME280;31721;41.740;-88.000;2022-07-29T08:45:42;98929.33;;;17.98;51.65
45991;BME280;31721;41.740;-88.000;2022-07-29T08:48:11;98929.78;;;17.83;51.76
45991;BME280;31721;41.740;-88.000;2022-07-29T08:50:46;98932.05;;;17.94;51.77
45991;BME280;31721;41.740;-88.000;2022-07-29T08:53:17;98929.21;;;17.93;51.89
45991;BME280;31721;41.740;-88.000;2022-07-29T08:55:46;98926.79;;;17.83;51.87
45991;BME280;31721;41.740;-88.000;2022-07-29T08:58:15;98928.14;;;17.88;52.07
45991;BME280;31721;41.740;-88.000;2022-07-29T09:00:48;98928.97;;;17.87;52.19
45991;BME280;31721;41.740;-88.000;2022-07-29T09:03:19;98932.75;;;17.76;52.29
45991;BME280;31721;41.740;-88.000;2022-07-29T09:05:47;98934.16;;;17.81;52.30
45991;BME280;31721;41.740;-88.000;2022-07-29T09:08:17;98933.56;;;17.76;52.42
45991;BME280;31721;41.740;-88.000;2022-07-29T09:10:45;98934.80;;;17.73;52.59
45991;BME280;31721;41.740;-88.000;2022-07-29T09:13:13;98937.80;;;17.71;52.62
45991;BME280;31721;41.740;-88.000;2022-07-29T09:15:41;98935.90;;;17.68;52.60
45991;BME280;31721;41.740;-88.000;2022-07-29T09:18:09;98939.71;;;17.64;52.69
45991;BME280;31721;41.740;-88.000;2022-07-29T09:20:37;98941.95;;;17.59;52.78
45991;BME280;31721;41.740;-88.000;2022-07-29T09:23:08;98938.96;;;17.46;52.76
45991;BME280;31721;41.740;-88.000;2022-07-29T09:25:37;98937.48;;;17.49;52.80
45991;BME280;31721;41.740;-88.000;2022-07-29T09:28:06;98938.88;;;17.49;53.08
45991;BME280;31721;41.740;-88.000;2022-07-29T09:30:35;98940.48;;;17.39;53.14
45991;BME280;31721;41.740;-88.000;2022-07-29T09:33:03;98940.86;;;17.43;53.09
45991;BME280;31721;41.740;-88.000;2022-07-29T09:35:31;98937.43;;;17.39;53.16
45991;BME280;31721;41.740;-88.000;2022-07-29T09:38:10;98938.29;;;17.37;53.24
45991;BME280;31721;41.740;-88.000;2022-07-29T09:40:38;98940.84;;;17.28;53.24
45991;BME280;31721;41.740;-88.000;2022-07-29T09:43:13;98943.54;;;17.38;53.31
45991;BME280;31721;41.740;-88.000;2022-07-29T09:45:41;98944.01;;;17.37;53.45
45991;BME280;31721;41.740;-88.000;2022-07-29T09:48:18;98940.29;;;17.35;53.34
45991;BME280;31721;41.740;-88.000;2022-07-29T09:50:46;98936.98;;;17.34;53.49
45991;BME280;31721;41.740;-88.000;2022-07-29T09:53:30;98940.88;;;17.37;53.47
45991;BME280;31721;41.740;-88.000;2022-07-29T09:55:57;98942.74;;;17.44;53.46
45991;BME280;31721;41.740;-88.000;2022-07-29T09:58:25;98945.42;;;17.42;53.33
45991;BME280;31721;41.740;-88.000;2022-07-29T10:00:54;98948.12;;;17.53;53.35
45991;BME280;31721;41.740;-88.000;2022-07-29T10:03:23;98951.10;;;17.39;53.31
45991;BME280;31721;41.740;-88.000;2022-07-29T10:06:06;98952.82;;;17.43;53.22
45991;BME280;31721;41.740;-88.000;2022-07-29T10:08:33;98956.05;;;17.48;53.12
45991;BME280;31721;41.740;-88.000;2022-07-29T10:11:10;98956.35;;;17.37;53.19
45991;BME280;31721;41.740;-88.000;2022-07-29T10:13:39;98955.36;;;17.34;53.09
45991;BME280;31721;41.740;-88.000;2022-07-29T10:16:07;98952.62;;;17.30;53.31
45991;BME280;31721;41.740;-88.000;2022-07-29T10:18:35;98949.38;;;17.38;53.54
45991;BME280;31721;41.740;-88.000;2022-07-29T10:21:05;98946.21;;;17.31;53.52
45991;BME280;31721;41.740;-88.000;2022-07-29T10:23:34;98945.70;;;17.38;53.48
45991;BME280;31721;41.740;-88.000;2022-07-29T10:26:02;98949.63;;;17.52;53.51
45991;BME280;31721;41.740;-88.000;2022-07-29T10:28:30;98946.08;;;17.52;53.24
45991;BME280;31721;41.740;-88.000;2022-07-29T10:31:05;98943.68;;;17.51;53.24
45991;BME280;31721;41.740;-88.000;2022-07-29T10:33:45;98945.71;;;17.54;53.29
45991;BME280;31721;41.740;-88.000;2022-07-29T10:36:27;98943.65;;;17.54;53.16
45991;BME280;31721;41.740;-88.000;2022-07-29T10:39:05;98942.25;;;17.50;53.12
45991;BME280;31721;41.740;-88.000;2022-07-29T10:41:52;98942.59;;;17.30;53.41
45991;BME280;31721;41.740;-88.000;2022-07-29T10:44:23;98943.41;;;17.48;53.49
45991;BME280;31721;41.740;-88.000;2022-07-29T10:46:52;98943.22;;;17.49;53.44
45991;BME280;31721;41.740;-88.000;2022-07-29T10:49:21;98947.08;;;17.50;53.34
45991;BME280;31721;41.740;-88.000;2022-07-29T10:52:00;98945.96;;;17.49;53.38
45991;BME280;31721;41.740;-88.000;2022-07-29T10:54:44;98948.00;;;17.45;53.35
45991;BME280;31721;41.740;-88.000;2022-07-29T10:57:14;98948.69;;;17.41;53.66
45991;BME280;31721;41.740;-88.000;2022-07-29T10:59:43;98952.35;;;17.41;53.69
45991;BME280;31721;41.740;-88.000;2022-07-29T11:03:03;98954.23;;;17.30;53.59
45991;BME280;31721;41.740;-88.000;2022-07-29T11:05:52;98959.00;;;17.52;53.68
45991;BME280;31721;41.740;-88.000;2022-07-29T11:08:22;98961.88;;;17.48;53.62
45991;BME280;31721;41.740;-88.000;2022-07-29T11:10:52;98961.39;;;17.46;53.73
45991;BME280;31721;41.740;-88.000;2022-07-29T11:13:52;98961.24;;;17.41;53.85
45991;BME280;31721;41.740;-88.000;2022-07-29T11:16:21;98962.63;;;17.37;53.92
45991;BME280;31721;41.740;-88.000;2022-07-29T11:19:22;98968.78;;;17.40;53.94
45991;BME280;31721;41.740;-88.000;2022-07-29T11:21:50;98978.60;;;17.52;53.85
45991;BME280;31721;41.740;-88.000;2022-07-29T11:24:20;98982.30;;;17.49;53.89
45991;BME280;31721;41.740;-88.000;2022-07-29T11:27:07;98987.33;;;17.39;54.05
45991;BME280;31721;41.740;-88.000;2022-07-29T11:29:37;98991.20;;;17.50;54.02
45991;BME280;31721;41.740;-88.000;2022-07-29T11:32:10;98991.34;;;17.37;54.22
45991;BME280;31721;41.740;-88.000;2022-07-29T11:34:38;98993.68;;;17.31;54.48
45991;BME280;31721;41.740;-88.000;2022-07-29T11:37:23;98994.15;;;17.32;54.44
45991;BME280;31721;41.740;-88.000;2022-07-29T11:40:23;98991.59;;;17.50;54.68
45991;BME280;31721;41.740;-88.000;2022-07-29T11:42:51;98994.83;;;17.37;54.78
45991;BME280;31721;41.740;-88.000;2022-07-29T11:45:23;99004.09;;;17.41;54.84
45991;BME280;31721;41.740;-88.000;2022-07-29T11:47:54;99007.07;;;17.40;55.00
45991;BME280;31721;41.740;-88.000;2022-07-29T11:50:36;99006.04;;;17.43;54.92
45991;BME280;31721;41.740;-88.000;2022-07-29T11:53:10;99007.93;;;17.46;55.15
45991;BME280;31721;41.740;-88.000;2022-07-29T11:55:39;99010.49;;;17.54;55.13
45991;BME280;31721;41.740;-88.000;2022-07-29T11:58:08;99012.60;;;17.54;54.98
45991;BME280;31721;41.740;-88.000;2022-07-29T12:00:37;99011.77;;;17.58;55.19
45991;BME280;31721;41.740;-88.000;2022-07-29T12:03:07;99016.42;;;17.64;55.20
45991;BME280;31721;41.740;-88.000;2022-07-29T12:05:37;99017.67;;;17.61;54.96
45991;BME280;31721;41.740;-88.000;2022-07-29T12:08:16;99022.26;;;17.68;55.19
45991;BME280;31721;41.740;-88.000;2022-07-29T12:10:45;99023.97;;;17.82;55.28
45991;BME280;31721;41.740;-88.000;2022-07-29T12:13:13;99027.16;;;17.82;55.29
45991;BME280;31721;41.740;-88.000;2022-07-29T12:15:42;99027.78;;;18.00;55.04
45991;BME280;31721;41.740;-88.000;2022-07-29T12:18:12;99025.77;;;17.91;54.72
45991;BME280;31721;41.740;-88.000;2022-07-29T12:20:41;99019.68;;;17.89;54.81
45991;BME280;31721;41.740;-88.000;2022-07-29T12:23:08;99021.08;;;18.04;55.19
45991;BME280;31721;41.740;-88.000;2022-07-29T12:25:36;99024.10;;;18.25;54.79
45991;BME280;31721;41.740;-88.000;2022-07-29T12:28:06;99029.35;;;18.32;54.84
45991;BME280;31721;41.740;-88.000;2022-07-29T12:30:40;99033.18;;;18.38;54.51
45991;BME280;31721;41.740;-88.000;2022-07-29T12:33:18;99034.21;;;18.53;54.54
45991;BME280;31721;41.740;-88.000;2022-07-29T12:35:49;99037.96;;;18.52;54.38
45991;BME280;31721;41.740;-88.000;2022-07-29T12:38:17;99046.27;;;18.66;54.73
45991;BME280;31721;41.740;-88.000;2022-07-29T12:40:47;99047.80;;;18.96;54.05
45991;BME280;31721;41.740;-88.000;2022-07-29T12:43:16;99051.34;;;18.89;53.74
45991;BME280;31721;41.740;-88.000;2022-07-29T12:45:46;99052.89;;;19.03;53.82
45991;BME280;31721;41.740;-88.000;2022-07-29T12:48:14;99049.47;;;19.15;53.76
45991;BME280;31721;41.740;-88.000;2022-07-29T12:51:00;99050.77;;;19.21;53.43
45991;BME280;31721;41.740;-88.000;2022-07-29T12:53:28;99049.93;;;19.22;53.40
45991;BME280;31721;41.740;-88.000;2022-07-29T12:55:57;99052.25;;;19.36;53.56